createdAt,value
2023-01-29T00:02:19.461Z,1.58
2023-01-29T00:07:18.346Z,1.26
2023-01-29T00:12:17.145Z,0.81
2023-01-29T00:17:15.962Z,1.37
2023-01-29T00:22:14.836Z,1.41
2023-01-29T00:27:13.594Z,1.05
2023-01-29T00:32:12.393Z,1.40
2023-01-29T00:37:11.239Z,1.40
2023-01-29T00:42:28.651Z,0.89
2023-01-29T00:47:36.544Z,1.02
2023-01-29T00:52:36.822Z,1.40
2023-01-29T00:57:36.850Z,1.42
2023-01-29T01:02:54.192Z,1.02
2023-01-29T01:07:56.215Z,1.10
2023-01-29T01:12:59.902Z,1.34
2023-01-29T01:18:00.248Z,0.68
2023-01-29T01:22:59.286Z,0.83
2023-01-29T01:32:58.460Z,1.19
2023-01-29T01:37:57.243Z,0.57
2023-01-29T01:43:00.626Z,1.04
2023-01-29T01:48:04.503Z,1.18
2023-01-29T01:53:15.662Z,1.06
2023-01-29T01:58:24.785Z,0.86
2023-01-29T02:03:46.835Z,1.03
2023-01-29T02:09:11.112Z,0.91
2023-01-29T02:14:10.940Z,1.25
2023-01-29T02:19:21.608Z,1.25
2023-01-29T02:24:39.064Z,1.04
2023-01-29T02:30:09.740Z,0.75
2023-01-29T02:35:30.196Z,1.02
2023-01-29T02:40:52.235Z,0.66
2023-01-29T02:46:00.628Z,1.00
2023-01-29T02:51:06.185Z,0.59
2023-01-29T02:56:31.721Z,0.42
2023-01-29T03:01:35.968Z,0.74
2023-01-29T03:06:48.195Z,0.47
2023-01-29T03:11:52.917Z,-0.30
2023-01-29T03:16:54.462Z,-0.33
2023-01-29T03:22:01.959Z,-0.57
2023-01-29T03:27:26.105Z,-0.32
2023-01-29T03:32:29.034Z,0.03
2023-01-29T03:37:35.979Z,-0.20
2023-01-29T03:42:52.252Z,0.50
2023-01-29T03:48:25.553Z,0.01
2023-01-29T03:53:29.410Z,-0.59
2023-01-29T03:58:32.593Z,0.25
2023-01-29T04:03:49.957Z,-0.29
2023-01-29T04:09:12.350Z,-0.15
2023-01-29T04:14:14.506Z,-0.11
2023-01-29T04:19:13.736Z,-0.08
2023-01-29T04:24:15.350Z,-0.87
2023-01-29T04:29:51.904Z,-0.71
2023-01-29T04:34:51.493Z,-0.69
2023-01-29T04:40:20.125Z,-0.47
2023-01-29T04:45:28.677Z,-0.71
2023-01-29T04:51:02.843Z,-0.80
2023-01-29T04:56:11.144Z,-0.27
2023-01-29T05:01:14.374Z,-0.76
2023-01-29T05:06:15.136Z,-0.28
2023-01-29T05:11:14.337Z,-0.09
2023-01-29T05:16:27.977Z,0.05
2023-01-29T05:21:27.586Z,-0.43
2023-01-29T05:26:46.331Z,-0.36
2023-01-29T05:31:45.527Z,-0.49
2023-01-29T05:36:44.387Z,-0.49
2023-01-29T05:41:43.568Z,-0.18
2023-01-29T05:46:42.382Z,-0.04
2023-01-29T05:51:41.201Z,-0.31
2023-01-29T05:56:40.458Z,-0.67
2023-01-29T06:01:39.271Z,-0.33
2023-01-29T06:06:38.073Z,-0.38
2023-01-29T06:11:36.897Z,-0.80
2023-01-29T06:16:35.699Z,-1.26
2023-01-29T06:21:34.539Z,-0.77
2023-01-29T06:26:33.355Z,-0.58
2023-01-29T06:31:38.838Z,-0.85
2023-01-29T06:36:38.282Z,-0.83
2023-01-29T06:41:37.231Z,-0.46
2023-01-29T06:46:36.303Z,-0.63
2023-01-29T06:51:35.263Z,-0.72
2023-01-29T06:56:34.225Z,-0.14
2023-01-29T07:01:36.668Z,-0.31
2023-01-29T07:06:35.712Z,-0.34
2023-01-29T07:11:35.564Z,-0.33
2023-01-29T07:16:34.486Z,-0.17
2023-01-29T07:21:33.335Z,-0.04
2023-01-29T07:26:32.150Z,0.14
2023-01-29T07:31:31.019Z,0.10
2023-01-29T07:36:30.085Z,-0.18
2023-01-29T07:41:28.813Z,0.25
2023-01-29T07:46:31.418Z,0.24
2023-01-29T07:51:30.174Z,0.36
2023-01-29T07:56:29.019Z,0.04
2023-01-29T08:01:30.096Z,-0.06
2023-01-29T08:06:29.060Z,6.35
2023-01-29T08:11:27.813Z,9.30
2023-01-29T08:16:26.589Z,8.94
2023-01-29T08:21:25.306Z,5.79
2023-01-29T08:26:26.266Z,3.42
2023-01-29T08:31:25.203Z,2.06
2023-01-29T08:36:27.602Z,1.81
2023-01-29T08:41:27.557Z,1.90
2023-01-29T08:46:26.330Z,1.45
2023-01-29T08:51:26.782Z,1.23
2023-01-29T08:56:27.121Z,1.76
2023-01-29T09:01:26.264Z,2.01
2023-01-29T09:06:25.586Z,1.05
2023-01-29T09:11:24.357Z,1.43
2023-01-29T09:16:23.598Z,0.80
2023-01-29T09:21:22.758Z,1.00
2023-01-29T09:26:21.653Z,1.32
2023-01-29T09:31:20.464Z,1.69
2023-01-29T09:36:19.336Z,1.30
2023-01-29T09:41:51.336Z,1.76
2023-01-29T09:46:52.888Z,1.84
2023-01-29T09:51:56.260Z,1.87
2023-01-29T09:56:57.372Z,1.75
2023-01-29T10:02:19.550Z,1.98
2023-01-29T10:07:37.140Z,2.27
2023-01-29T10:13:01.571Z,2.59
2023-01-29T10:18:22.014Z,2.03
2023-01-29T10:23:36.945Z,2.73
2023-01-29T10:28:43.510Z,1.77
2023-01-29T10:34:01.959Z,2.36
2023-01-29T10:39:02.961Z,2.15
2023-01-29T10:44:30.973Z,2.04
2023-01-29T10:49:54.805Z,1.53
2023-01-29T10:55:25.347Z,1.56
2023-01-29T11:00:39.551Z,1.73
2023-01-29T11:05:45.054Z,1.82
2023-01-29T11:11:10.217Z,2.18
2023-01-29T11:16:10.009Z,2.71
2023-01-29T11:21:09.008Z,2.81
2023-01-29T11:26:12.083Z,3.16
2023-01-29T11:31:26.053Z,1.77
2023-01-29T11:36:38.284Z,2.36
2023-01-29T11:41:47.389Z,2.11
2023-01-29T11:46:47.072Z,2.83
2023-01-29T11:51:52.453Z,3.22
2023-01-29T11:56:51.859Z,2.43
2023-01-29T12:01:50.782Z,2.65
2023-01-29T12:06:53.167Z,2.56
2023-01-29T12:11:52.720Z,3.38
2023-01-29T12:16:59.800Z,2.90
2023-01-29T12:22:04.519Z,2.82
2023-01-29T12:27:17.425Z,2.49
2023-01-29T12:32:56.897Z,2.28
2023-01-29T12:38:21.953Z,2.72
2023-01-29T12:43:45.282Z,3.53
2023-01-29T12:48:46.376Z,3.51
2023-01-29T12:53:52.082Z,3.64
2023-01-29T12:58:54.026Z,3.87
2023-01-29T13:04:02.030Z,3.92
2023-01-29T13:09:14.992Z,3.75
2023-01-29T13:14:20.582Z,3.96
2023-01-29T13:19:28.650Z,3.96
2023-01-29T13:24:35.441Z,3.10
2023-01-29T13:29:34.443Z,3.50
2023-01-29T13:34:44.003Z,3.53
2023-01-29T13:39:51.417Z,3.92
2023-01-29T13:44:56.707Z,3.22
2023-01-29T13:50:18.566Z,3.76
2023-01-29T13:55:17.537Z,3.37
2023-01-29T14:00:22.668Z,3.98
2023-01-29T14:05:30.732Z,4.22
2023-01-29T14:10:31.574Z,3.88
2023-01-29T14:15:32.916Z,3.93
2023-01-29T14:20:45.696Z,3.67
2023-01-29T14:25:46.413Z,3.64
2023-01-29T14:30:49.126Z,3.42
2023-01-29T14:35:50.886Z,3.78
2023-01-29T14:40:49.899Z,3.89
2023-01-29T14:45:49.747Z,3.75
2023-01-29T14:50:51.385Z,3.74
2023-01-29T14:55:55.927Z,3.00
2023-01-29T15:00:57.358Z,3.64
2023-01-29T15:05:59.469Z,2.83
2023-01-29T15:11:21.797Z,2.84
2023-01-29T15:16:31.241Z,2.62
2023-01-29T15:21:30.057Z,3.02
2023-01-29T15:26:29.133Z,2.80
2023-01-29T15:31:29.247Z,2.64
2023-01-29T15:36:31.600Z,2.82
2023-01-29T15:41:30.375Z,2.86
2023-01-29T15:46:40.080Z,2.95
2023-01-29T15:51:39.371Z,2.55
2023-01-29T15:56:42.987Z,2.67
2023-01-29T16:01:43.092Z,2.40
2023-01-29T16:06:43.847Z,2.27
2023-01-29T16:11:43.351Z,1.59
2023-01-29T16:16:45.242Z,1.71
2023-01-29T16:21:45.997Z,2.22
2023-01-29T16:26:47.615Z,2.28
2023-01-29T16:31:48.500Z,2.27
2023-01-29T16:36:48.742Z,2.51
2023-01-29T16:42:09.925Z,2.36
2023-01-29T16:47:14.295Z,2.27
2023-01-29T16:52:29.603Z,2.45
2023-01-29T16:57:33.580Z,2.87
2023-01-29T17:02:38.186Z,2.69
2023-01-29T17:07:38.268Z,2.34
2023-01-29T17:12:38.890Z,2.68
2023-01-29T17:17:37.839Z,2.40
2023-01-29T17:22:36.581Z,2.31
2023-01-29T17:27:35.500Z,2.39
2023-01-29T17:32:44.063Z,2.59
2023-01-29T17:37:44.434Z,2.66
2023-01-29T17:42:43.307Z,2.75
2023-01-29T17:47:42.222Z,2.58
2023-01-29T17:52:41.262Z,2.42
2023-01-29T17:57:40.466Z,2.21
2023-01-29T18:02:39.340Z,2.29
2023-01-29T18:07:39.938Z,1.73
2023-01-29T18:12:41.527Z,1.53
2023-01-29T18:17:40.504Z,1.53
2023-01-29T18:22:39.461Z,1.60
2023-01-29T18:27:38.313Z,1.39
2023-01-29T18:32:37.273Z,1.79
2023-01-29T18:37:36.376Z,1.73
2023-01-29T18:42:36.023Z,1.38
2023-01-29T18:47:34.844Z,1.92
2023-01-29T18:52:34.373Z,2.05
2023-01-29T18:58:27.048Z,2.07
2023-01-29T19:02:52.232Z,1.65
2023-01-29T19:07:52.239Z,2.02
2023-01-29T19:12:50.980Z,1.33
2023-01-29T19:17:51.044Z,1.51
2023-01-29T19:22:49.883Z,1.47
2023-01-29T19:27:48.708Z,1.47
2023-01-29T19:32:47.496Z,1.71
2023-01-29T19:37:46.546Z,2.07
2023-01-29T19:42:45.254Z,1.59
2023-01-29T19:47:44.094Z,1.89
2023-01-29T19:52:51.791Z,1.79
2023-01-29T19:57:52.807Z,1.78
2023-01-29T20:02:52.239Z,1.06
2023-01-29T20:07:50.917Z,1.11
2023-01-29T20:12:49.620Z,1.05
2023-01-29T20:17:48.346Z,0.62
2023-01-29T20:22:47.054Z,1.12
2023-01-29T20:27:45.829Z,1.21
2023-01-29T20:32:44.560Z,0.98
2023-01-29T20:37:43.405Z,1.08
2023-01-29T20:42:42.195Z,0.79
2023-01-29T20:47:42.420Z,4.40
2023-01-29T20:52:42.192Z,3.50
2023-01-29T20:57:41.061Z,1.87
2023-01-29T21:02:39.900Z,1.82
2023-01-29T21:07:39.022Z,0.60
2023-01-29T21:12:37.922Z,0.79
2023-01-29T21:17:36.754Z,0.65
2023-01-29T21:22:35.703Z,0.55
2023-01-29T21:27:34.883Z,0.77
2023-01-29T21:32:33.577Z,0.78
2023-01-29T21:37:36.844Z,0.55
2023-01-29T21:42:54.421Z,0.69
2023-01-29T21:47:53.333Z,1.11
2023-01-29T21:52:52.158Z,0.72
2023-01-29T21:57:51.103Z,0.97
2023-01-29T22:02:51.201Z,1.29
2023-01-29T22:07:50.341Z,1.19
2023-01-29T22:12:49.415Z,1.24
2023-01-29T22:17:48.171Z,1.20
2023-01-29T22:22:47.095Z,0.71
2023-01-29T22:27:46.148Z,1.33
2023-01-29T22:32:44.917Z,1.20
2023-01-29T22:37:43.907Z,0.92
2023-01-29T22:42:42.714Z,0.97
2023-01-29T22:47:41.495Z,1.34
2023-01-29T22:52:42.775Z,1.29
2023-01-29T22:57:41.551Z,1.43
2023-01-29T23:02:40.931Z,1.48
2023-01-29T23:07:39.819Z,1.24
2023-01-29T23:12:38.633Z,0.82
2023-01-29T23:17:39.648Z,0.86
2023-01-29T23:22:38.556Z,0.68
2023-01-29T23:27:37.287Z,0.81
2023-01-29T23:32:37.937Z,0.63
2023-01-29T23:37:36.678Z,0.60
2023-01-29T23:42:35.501Z,0.82
2023-01-29T23:47:34.359Z,0.77
2023-01-29T23:52:33.192Z,1.08
2023-01-29T23:57:31.914Z,1.04
